createdAt,value
2023-03-04T00:01:48.290Z,2.10
2023-03-04T00:04:14.838Z,2.40
2023-03-04T00:06:41.216Z,3.00
2023-03-04T00:09:07.625Z,2.87
2023-03-04T00:11:34.312Z,2.37
2023-03-04T00:14:00.754Z,2.63
2023-03-04T00:16:27.436Z,2.60
2023-03-04T00:18:55.141Z,2.40
2023-03-04T00:21:21.693Z,4.73
2023-03-04T00:23:48.295Z,2.67
2023-03-04T00:26:14.840Z,3.10
2023-03-04T00:28:41.247Z,3.70
2023-03-04T00:31:08.562Z,3.30
2023-03-04T00:33:35.103Z,2.97
2023-03-04T00:36:01.702Z,2.70
2023-03-04T00:38:28.160Z,2.87
2023-03-04T00:40:54.554Z,2.40
2023-03-04T00:43:21.430Z,2.33
2023-03-04T00:45:47.933Z,2.93
2023-03-04T00:48:14.920Z,2.90
2023-03-04T00:50:41.280Z,2.77
2023-03-04T00:53:07.919Z,2.70
2023-03-04T00:55:34.308Z,2.93
2023-03-04T00:58:00.773Z,2.57
2023-03-04T01:00:27.255Z,2.30
2023-03-04T01:02:53.654Z,2.40
2023-03-04T01:05:20.219Z,3.10
2023-03-04T01:07:46.858Z,2.73
2023-03-04T01:10:14.968Z,3.90
2023-03-04T01:12:41.902Z,2.97
2023-03-04T01:15:13.241Z,4.13
2023-03-04T01:17:40.131Z,4.17
2023-03-04T01:20:07.792Z,4.47
2023-03-04T01:22:34.183Z,4.07
2023-03-04T01:25:00.597Z,3.30
2023-03-04T01:27:27.085Z,3.40
2023-03-04T01:29:53.476Z,2.97
2023-03-04T01:32:19.870Z,3.77
2023-03-04T01:34:46.292Z,3.43
2023-03-04T01:37:13.896Z,4.60
2023-03-04T01:39:40.320Z,3.90
2023-03-04T01:42:13.713Z,3.07
2023-03-04T01:44:40.108Z,2.70
2023-03-04T01:47:06.498Z,3.03
2023-03-04T01:49:33.581Z,2.83
2023-03-04T01:52:00.000Z,3.17
2023-03-04T01:54:26.397Z,3.13
2023-03-04T01:56:52.836Z,4.60
2023-03-04T01:59:20.862Z,3.90
2023-03-04T02:01:49.380Z,3.57
2023-03-04T02:04:17.052Z,3.67
2023-03-04T02:06:44.467Z,2.63
2023-03-04T02:09:11.142Z,2.10
2023-03-04T02:11:38.687Z,2.37
2023-03-04T02:14:05.852Z,1.90
2023-03-04T02:16:32.462Z,1.50
2023-03-04T02:18:59.061Z,1.40
2023-03-04T02:21:33.565Z,1.80
2023-03-04T02:24:18.144Z,1.80
2023-03-04T02:26:47.004Z,1.60
2023-03-04T02:29:15.153Z,3.23
2023-03-04T02:31:49.876Z,2.83
2023-03-04T02:34:19.613Z,2.13
2023-03-04T02:36:47.203Z,2.10
2023-03-04T02:39:21.261Z,2.00
2023-03-04T02:41:48.913Z,1.83
2023-03-04T02:44:18.028Z,1.93
2023-03-04T02:46:45.078Z,2.07
2023-03-04T02:49:11.496Z,1.50
2023-03-04T02:51:37.972Z,2.17
2023-03-04T02:54:04.845Z,2.13
2023-03-04T02:56:31.240Z,2.37
2023-03-04T02:58:57.810Z,2.40
2023-03-04T03:01:28.501Z,1.93
2023-03-04T03:03:54.920Z,3.70
2023-03-04T03:06:21.316Z,2.00
2023-03-04T03:08:47.824Z,2.20
2023-03-04T03:11:14.207Z,2.07
2023-03-04T03:13:40.581Z,1.90
2023-03-04T03:16:07.153Z,1.47
2023-03-04T03:18:33.550Z,1.60
2023-03-04T03:20:59.962Z,1.87
2023-03-04T03:23:26.374Z,2.00
2023-03-04T03:25:52.778Z,1.50
2023-03-04T03:28:19.132Z,1.60
2023-03-04T03:30:45.786Z,1.60
2023-03-04T03:33:12.177Z,2.40
2023-03-04T03:35:38.897Z,2.27
2023-03-04T03:38:05.286Z,1.60
2023-03-04T03:40:31.787Z,1.63
2023-03-04T03:42:58.175Z,1.83
2023-03-04T03:45:24.756Z,2.13
2023-03-04T03:47:51.288Z,2.00
2023-03-04T03:50:18.127Z,2.03
2023-03-04T03:52:44.681Z,1.97
2023-03-04T03:55:11.512Z,1.60
2023-03-04T03:57:38.227Z,1.30
2023-03-04T04:00:07.447Z,1.77
2023-03-04T04:02:33.941Z,1.40
2023-03-04T04:05:00.415Z,1.20
2023-03-04T04:07:27.065Z,2.07
2023-03-04T04:09:53.592Z,1.30
2023-03-04T04:12:20.937Z,1.20
2023-03-04T04:14:47.573Z,1.20
2023-03-04T04:17:14.035Z,1.77
2023-03-04T04:19:41.173Z,1.73
2023-03-04T04:22:09.911Z,1.30
2023-03-04T04:24:36.328Z,2.13
2023-03-04T04:27:04.405Z,1.27
2023-03-04T04:29:31.294Z,1.50
2023-03-04T04:31:57.975Z,1.40
2023-03-04T04:34:24.705Z,1.00
2023-03-04T04:36:51.764Z,1.40
2023-03-04T04:39:18.955Z,1.20
2023-03-04T04:41:46.225Z,1.80
2023-03-04T04:44:13.855Z,1.80
2023-03-04T04:46:41.419Z,1.40
2023-03-04T04:49:08.221Z,1.70
2023-03-04T04:51:36.449Z,1.80
2023-03-04T04:54:03.359Z,1.40
2023-03-04T04:56:30.001Z,2.03
2023-03-04T04:58:58.274Z,1.40
2023-03-04T05:01:27.170Z,1.10
2023-03-04T05:03:55.336Z,1.10
2023-03-04T05:06:24.711Z,1.30
2023-03-04T05:08:51.731Z,1.97
2023-03-04T05:11:19.493Z,1.20
2023-03-04T05:13:46.535Z,1.20
2023-03-04T05:16:13.591Z,1.30
2023-03-04T05:18:40.112Z,1.30
2023-03-04T05:21:06.957Z,1.80
2023-03-04T05:23:35.336Z,1.50
2023-03-04T05:26:02.845Z,1.60
2023-03-04T05:28:29.276Z,1.17
2023-03-04T05:30:55.830Z,1.43
2023-03-04T05:33:22.399Z,1.53
2023-03-04T05:35:49.757Z,1.03
2023-03-04T05:38:19.596Z,1.20
2023-03-04T05:40:46.806Z,1.23
2023-03-04T05:43:13.243Z,1.13
2023-03-04T05:45:40.286Z,1.40
2023-03-04T05:48:06.922Z,1.30
2023-03-04T05:50:33.749Z,1.37
2023-03-04T05:53:00.470Z,1.37
2023-03-04T05:55:28.981Z,1.50
2023-03-04T05:57:55.708Z,1.20
2023-03-04T06:00:22.134Z,1.27
2023-03-04T06:02:50.380Z,1.80
2023-03-04T06:05:17.443Z,1.43
2023-03-04T06:07:45.199Z,2.60
2023-03-04T06:10:16.713Z,2.10
2023-03-04T06:12:43.654Z,2.57
2023-03-04T06:15:12.014Z,1.83
2023-03-04T06:17:41.807Z,1.90
2023-03-04T06:20:10.539Z,2.37
2023-03-04T06:22:38.050Z,1.50
2023-03-04T06:25:04.951Z,1.70
2023-03-04T06:27:31.418Z,1.73
2023-03-04T06:29:58.910Z,1.80
2023-03-04T06:32:25.473Z,1.40
2023-03-04T06:34:51.937Z,1.93
2023-03-04T06:37:18.383Z,1.70
2023-03-04T06:39:45.404Z,1.90
2023-03-04T06:42:12.632Z,2.67
2023-03-04T06:44:39.021Z,2.73
2023-03-04T06:47:05.514Z,4.00
2023-03-04T06:49:31.907Z,6.70
2023-03-04T06:51:58.456Z,9.50
2023-03-04T06:54:24.874Z,11.47
2023-03-04T06:56:51.435Z,11.77
2023-03-04T06:59:17.848Z,12.03
2023-03-04T07:01:44.549Z,9.93
2023-03-04T07:04:13.264Z,4.80
2023-03-04T07:06:39.807Z,5.20
2023-03-04T07:09:06.277Z,2.53
2023-03-04T07:11:32.826Z,2.10
2023-03-04T07:13:59.375Z,1.77
2023-03-04T07:16:25.891Z,2.43
2023-03-04T07:18:52.551Z,2.10
2023-03-04T07:21:19.494Z,2.77
2023-03-04T07:23:46.272Z,2.53
2023-03-04T07:26:12.737Z,2.30
2023-03-04T07:28:39.469Z,2.80
2023-03-04T07:31:24.206Z,1.67
2023-03-04T07:33:51.008Z,2.50
2023-03-04T07:36:20.014Z,1.93
2023-03-04T07:38:49.524Z,2.60
2023-03-04T07:41:17.562Z,3.27
2023-03-04T07:43:44.566Z,2.57
2023-03-04T07:46:11.253Z,3.70
2023-03-04T07:48:38.040Z,3.87
2023-03-04T07:51:15.427Z,3.87
2023-03-04T07:53:44.012Z,2.40
2023-03-04T07:56:18.840Z,2.43
2023-03-04T07:58:45.580Z,3.17
2023-03-04T08:01:14.046Z,3.13
2023-03-04T08:03:40.608Z,2.60
2023-03-04T08:06:09.417Z,2.23
2023-03-04T08:08:36.524Z,3.10
2023-03-04T08:11:07.692Z,2.90
2023-03-04T08:13:36.056Z,2.57
2023-03-04T08:16:03.299Z,3.30
2023-03-04T08:18:30.025Z,3.60
2023-03-04T08:20:56.655Z,4.17
2023-03-04T08:23:24.063Z,4.17
2023-03-04T08:25:50.449Z,3.80
2023-03-04T08:28:17.286Z,4.57
2023-03-04T08:30:43.872Z,4.23
2023-03-04T08:33:10.574Z,4.93
2023-03-04T08:35:39.392Z,3.43
2023-03-04T08:38:06.445Z,2.70
2023-03-04T08:40:33.570Z,2.77
2023-03-04T08:43:00.355Z,3.17
2023-03-04T08:45:26.796Z,3.03
2023-03-04T08:47:53.171Z,3.40
2023-03-04T08:50:22.249Z,3.40
2023-03-04T08:52:48.845Z,2.80
2023-03-04T08:55:15.307Z,2.50
2023-03-04T08:57:41.768Z,1.97
2023-03-04T09:00:08.858Z,2.17
2023-03-04T09:02:35.247Z,1.80
2023-03-04T09:05:01.692Z,2.00
2023-03-04T09:07:28.114Z,2.13
2023-03-04T09:09:54.587Z,2.03
2023-03-04T09:12:20.979Z,1.60
2023-03-04T09:14:51.324Z,2.27
2023-03-04T09:17:24.678Z,2.73
2023-03-04T09:19:51.075Z,2.67
2023-03-04T09:22:17.783Z,2.40
2023-03-04T09:24:44.193Z,2.40
2023-03-04T09:27:10.646Z,2.53
2023-03-04T09:29:37.097Z,2.27
2023-03-04T09:32:03.636Z,2.43
2023-03-04T09:34:30.092Z,2.30
2023-03-04T09:36:56.777Z,2.87
2023-03-04T09:39:23.198Z,3.93
2023-03-04T09:41:52.851Z,2.90
2023-03-04T09:44:36.737Z,2.50
2023-03-04T09:47:06.747Z,2.30
2023-03-04T09:49:33.233Z,2.53
2023-03-04T09:52:24.843Z,2.40
2023-03-04T09:55:13.280Z,3.40
2023-03-04T09:57:42.712Z,2.67
2023-03-04T10:00:19.988Z,2.93
2023-03-04T10:03:15.391Z,2.50
2023-03-04T10:06:07.916Z,2.87
2023-03-04T10:08:46.290Z,2.87
2023-03-04T10:11:43.434Z,3.40
2023-03-04T10:14:28.098Z,2.33
2023-03-04T10:17:00.998Z,3.10
2023-03-04T10:19:49.112Z,2.73
2023-03-04T10:22:31.597Z,2.33
2023-03-04T10:24:59.347Z,2.57
2023-03-04T10:27:26.440Z,2.90
2023-03-04T10:29:52.826Z,2.57
2023-03-04T10:32:20.476Z,3.17
2023-03-04T10:34:47.282Z,2.60
2023-03-04T10:37:13.722Z,2.90
2023-03-04T10:39:44.886Z,3.37
2023-03-04T10:42:14.320Z,2.30
2023-03-04T10:44:52.160Z,3.13
2023-03-04T10:47:18.745Z,2.53
2023-03-04T10:49:54.109Z,2.03
2023-03-04T10:52:38.782Z,2.20
2023-03-04T10:55:20.002Z,3.13
2023-03-04T10:57:49.920Z,2.90
2023-03-04T11:00:34.617Z,2.50
2023-03-04T11:03:23.583Z,2.87
2023-03-04T11:05:53.491Z,2.40
2023-03-04T11:08:22.512Z,2.50
2023-03-04T11:10:52.078Z,2.90
2023-03-04T11:13:21.950Z,3.03
2023-03-04T11:15:57.541Z,3.00
2023-03-04T11:18:38.217Z,2.90
2023-03-04T11:21:05.874Z,3.30
2023-03-04T11:23:38.264Z,3.30
2023-03-04T11:26:10.439Z,3.13
2023-03-04T11:28:43.247Z,3.70
2023-03-04T11:31:21.863Z,2.20
2023-03-04T11:33:55.952Z,2.10
2023-03-04T11:36:31.395Z,3.20
2023-03-04T11:38:58.311Z,2.83
2023-03-04T11:41:34.102Z,3.03
2023-03-04T11:44:00.608Z,3.50
2023-03-04T11:46:45.700Z,3.33
2023-03-04T11:49:18.314Z,2.77
2023-03-04T11:51:54.577Z,3.40
2023-03-04T11:54:47.456Z,2.63
2023-03-04T11:57:27.837Z,3.20
2023-03-04T12:00:02.430Z,2.97
2023-03-04T12:02:34.429Z,2.70
2023-03-04T12:05:16.266Z,2.73
2023-03-04T12:08:04.143Z,2.90
2023-03-04T12:10:51.739Z,3.33
2023-03-04T12:13:43.217Z,3.57
2023-03-04T12:16:21.373Z,3.17
2023-03-04T12:19:12.897Z,3.53
2023-03-04T12:21:55.268Z,3.17
2023-03-04T12:24:33.686Z,2.97
2023-03-04T12:27:02.220Z,3.27
2023-03-04T12:30:02.290Z,3.93
2023-03-04T12:32:40.549Z,3.03
2023-03-04T12:35:37.553Z,4.23
2023-03-04T12:38:22.552Z,3.13
2023-03-04T12:40:57.537Z,3.40
2023-03-04T12:43:32.918Z,3.40
2023-03-04T12:46:07.489Z,3.20
2023-03-04T12:48:41.450Z,3.83
2023-03-04T12:51:17.066Z,3.10
2023-03-04T12:53:54.552Z,3.50
2023-03-04T12:56:58.049Z,3.70
2023-03-04T12:59:26.648Z,3.50
2023-03-04T13:01:56.598Z,3.40
2023-03-04T13:04:34.799Z,3.70
2023-03-04T13:07:41.975Z,3.97
2023-03-04T13:10:12.845Z,4.03
2023-03-04T13:12:53.542Z,3.50
2023-03-04T13:15:23.986Z,3.77
2023-03-04T13:17:51.552Z,3.20
2023-03-04T13:20:30.163Z,2.97
2023-03-04T13:22:58.250Z,2.77
2023-03-04T13:25:33.920Z,3.00
2023-03-04T13:28:00.541Z,3.03
2023-03-04T13:30:43.112Z,3.17
2023-03-04T13:33:18.365Z,2.70
2023-03-04T13:36:02.734Z,2.43
2023-03-04T13:38:32.458Z,2.80
2023-03-04T13:41:04.973Z,2.80
2023-03-04T13:43:52.250Z,3.23
2023-03-04T13:46:21.242Z,2.80
2023-03-04T13:48:53.082Z,2.50
2023-03-04T13:51:29.930Z,2.10
2023-03-04T13:53:59.829Z,3.40
2023-03-04T13:56:31.516Z,3.17
2023-03-04T13:59:07.037Z,3.80
2023-03-04T14:02:06.833Z,2.47
2023-03-04T14:04:41.714Z,1.97
2023-03-04T14:07:26.147Z,2.63
2023-03-04T14:10:00.132Z,3.23
2023-03-04T14:12:29.272Z,2.60
2023-03-04T14:15:31.235Z,2.70
2023-03-04T14:18:02.581Z,2.40
2023-03-04T14:20:34.586Z,2.00
2023-03-04T14:23:02.941Z,2.30
2023-03-04T14:25:36.683Z,2.80
2023-03-04T14:28:12.599Z,2.90
2023-03-04T14:30:43.202Z,3.33
2023-03-04T14:33:16.232Z,2.67
2023-03-04T14:35:48.313Z,2.97
2023-03-04T14:38:27.434Z,2.70
2023-03-04T14:41:05.304Z,2.67
2023-03-04T14:43:36.630Z,3.10
2023-03-04T14:46:03.705Z,2.00
2023-03-04T14:48:33.728Z,2.40
2023-03-04T14:51:01.754Z,2.07
2023-03-04T14:53:33.060Z,2.50
2023-03-04T14:56:00.412Z,2.77
2023-03-04T14:58:29.720Z,2.67
2023-03-04T15:01:19.500Z,2.57
2023-03-04T15:03:54.129Z,1.83
2023-03-04T15:06:23.123Z,2.30
2023-03-04T15:09:05.818Z,2.17
2023-03-04T15:11:47.563Z,1.57
2023-03-04T15:14:52.189Z,2.33
2023-03-04T15:17:39.308Z,2.13
2023-03-04T15:20:05.783Z,2.80
2023-03-04T15:22:37.432Z,2.57
2023-03-04T15:25:03.992Z,3.33
2023-03-04T15:27:30.857Z,2.10
2023-03-04T15:29:59.311Z,2.47
2023-03-04T15:32:26.641Z,1.93
2023-03-04T15:34:53.247Z,1.90
2023-03-04T15:37:22.365Z,1.80
2023-03-04T15:39:49.382Z,1.97
2023-03-04T15:42:17.697Z,1.87
2023-03-04T15:44:44.181Z,1.40
2023-03-04T15:47:13.070Z,2.33
2023-03-04T15:49:41.027Z,1.70
2023-03-04T15:52:13.525Z,1.90
2023-03-04T15:54:40.110Z,1.60
2023-03-04T15:57:09.299Z,2.23
2023-03-04T15:59:35.733Z,1.80
2023-03-04T16:02:02.125Z,1.70
2023-03-04T16:04:28.599Z,2.30
2023-03-04T16:06:58.817Z,1.60
2023-03-04T16:09:26.436Z,2.13
2023-03-04T16:11:56.296Z,2.47
2023-03-04T16:14:22.774Z,2.20
2023-03-04T16:16:50.417Z,2.50
2023-03-04T16:19:16.822Z,2.60
2023-03-04T16:21:44.349Z,2.77
2023-03-04T16:24:17.289Z,2.23
2023-03-04T16:26:43.810Z,1.70
2023-03-04T16:29:12.638Z,2.10
2023-03-04T16:31:39.051Z,2.13
2023-03-04T16:34:05.510Z,2.50
2023-03-04T16:36:32.155Z,3.03
2023-03-04T16:39:03.029Z,3.70
2023-03-04T16:41:32.188Z,3.23
2023-03-04T16:44:00.625Z,2.50
2023-03-04T16:46:27.268Z,2.97
2023-03-04T16:48:53.955Z,3.33
2023-03-04T16:51:22.361Z,3.10
2023-03-04T16:53:52.284Z,3.03
2023-03-04T16:56:19.657Z,4.00
2023-03-04T16:58:46.279Z,2.53
2023-03-04T17:01:24.690Z,2.60
2023-03-04T17:03:51.864Z,2.90
2023-03-04T17:06:19.898Z,2.63
2023-03-04T17:08:46.745Z,2.50
2023-03-04T17:11:16.895Z,2.57
2023-03-04T17:13:43.943Z,2.53
2023-03-04T17:16:11.516Z,2.10
2023-03-04T17:18:38.842Z,2.63
2023-03-04T17:21:07.991Z,2.50
2023-03-04T17:23:38.532Z,2.70
2023-03-04T17:26:05.578Z,3.30
2023-03-04T17:28:32.645Z,2.40
2023-03-04T17:31:00.655Z,3.27
2023-03-04T17:33:27.309Z,2.93
2023-03-04T17:35:53.753Z,2.27
2023-03-04T17:38:20.603Z,3.53
2023-03-04T17:40:47.102Z,3.60
2023-03-04T17:43:13.596Z,2.80
2023-03-04T17:45:41.158Z,3.97
2023-03-04T17:48:08.738Z,3.00
2023-03-04T17:50:35.420Z,2.63
2023-03-04T17:53:02.001Z,3.57
2023-03-04T17:55:28.467Z,3.30
2023-03-04T17:57:57.356Z,3.17
2023-03-04T18:00:24.103Z,3.87
2023-03-04T18:02:50.559Z,3.47
2023-03-04T18:05:16.974Z,3.63
2023-03-04T18:07:43.447Z,3.20
2023-03-04T18:10:11.183Z,3.20
2023-03-04T18:12:37.766Z,2.63
2023-03-04T18:15:04.571Z,2.67
2023-03-04T18:17:31.034Z,2.90
2023-03-04T18:19:57.428Z,3.23
2023-03-04T18:22:23.801Z,2.80
2023-03-04T18:24:50.210Z,2.60
2023-03-04T18:27:16.588Z,2.27
2023-03-04T18:29:42.993Z,2.70
2023-03-04T18:32:09.679Z,2.33
2023-03-04T18:34:36.216Z,2.40
2023-03-04T18:37:05.185Z,2.47
2023-03-04T18:39:31.660Z,2.97
2023-03-04T18:41:58.120Z,2.37
2023-03-04T18:44:24.512Z,2.40
2023-03-04T18:46:52.913Z,2.93
2023-03-04T18:49:20.224Z,2.87
2023-03-04T18:51:46.770Z,2.73
2023-03-04T18:54:13.212Z,2.43
2023-03-04T18:56:54.601Z,2.20
2023-03-04T18:59:31.423Z,2.90
2023-03-04T19:01:59.737Z,2.93
2023-03-04T19:04:27.948Z,2.27
2023-03-04T19:06:54.694Z,2.80
2023-03-04T19:09:21.128Z,2.40
2023-03-04T19:11:50.423Z,2.73
2023-03-04T19:14:16.885Z,1.90
2023-03-04T19:16:43.334Z,2.83
2023-03-04T19:19:09.731Z,2.50
2023-03-04T19:21:39.034Z,2.70
2023-03-04T19:24:05.841Z,2.50
2023-03-04T19:26:32.913Z,3.20
2023-03-04T19:29:00.377Z,2.50
2023-03-04T19:31:27.148Z,2.43
2023-03-04T19:33:53.626Z,3.60
2023-03-04T19:36:20.206Z,3.70
2023-03-04T19:38:46.633Z,3.07
2023-03-04T19:41:17.411Z,3.03
2023-03-04T19:43:45.908Z,2.50
2023-03-04T19:46:16.963Z,2.57
2023-03-04T19:48:45.199Z,3.33
2023-03-04T19:51:16.909Z,1.77
2023-03-04T19:53:43.881Z,1.93
2023-03-04T19:56:10.897Z,2.23
2023-03-04T19:58:37.352Z,4.03
2023-03-04T20:01:04.314Z,3.30
2023-03-04T20:03:30.814Z,3.63
2023-03-04T20:06:07.912Z,3.20
2023-03-04T20:08:37.856Z,2.47
2023-03-04T20:11:11.552Z,3.00
2023-03-04T20:13:37.954Z,2.40
2023-03-04T20:16:09.458Z,3.00
2023-03-04T20:18:36.053Z,2.70
2023-03-04T20:21:02.824Z,2.40
2023-03-04T20:23:29.444Z,2.83
2023-03-04T20:25:55.959Z,2.33
2023-03-04T20:28:25.702Z,2.73
2023-03-04T20:30:53.418Z,2.50
2023-03-04T20:33:20.585Z,3.27
2023-03-04T20:35:47.416Z,2.67
2023-03-04T20:38:16.144Z,2.30
2023-03-04T20:40:42.620Z,2.30
2023-03-04T20:43:10.074Z,3.00
2023-03-04T20:45:37.286Z,3.20
2023-03-04T20:48:05.587Z,3.00
2023-03-04T20:50:32.011Z,2.57
2023-03-04T20:53:01.527Z,2.43
2023-03-04T20:55:28.119Z,2.40
2023-03-04T20:57:54.754Z,2.33
2023-03-04T21:00:21.596Z,2.40
2023-03-04T21:02:48.017Z,2.80
2023-03-04T21:05:14.637Z,2.80
2023-03-04T21:07:41.060Z,3.67
2023-03-04T21:10:07.797Z,5.07
2023-03-04T21:12:34.295Z,3.03
2023-03-04T21:15:08.199Z,3.17
2023-03-04T21:17:34.662Z,2.50
2023-03-04T21:20:01.051Z,2.20
2023-03-04T21:22:28.838Z,2.47
2023-03-04T21:24:55.902Z,2.00
2023-03-04T21:27:23.625Z,2.07
2023-03-04T21:29:50.192Z,2.07
2023-03-04T21:32:24.611Z,1.90
2023-03-04T21:34:52.420Z,1.53
2023-03-04T21:37:20.473Z,1.90
2023-03-04T21:39:46.981Z,1.80
2023-03-04T21:42:13.608Z,1.93
2023-03-04T21:44:48.970Z,1.90
2023-03-04T21:47:16.589Z,3.67
2023-03-04T21:49:43.250Z,3.70
2023-03-04T21:52:09.780Z,2.37
2023-03-04T21:54:36.165Z,1.90
2023-03-04T21:57:02.684Z,2.50
2023-03-04T21:59:29.154Z,1.80
2023-03-04T22:01:55.688Z,2.23
2023-03-04T22:04:22.216Z,1.77
2023-03-04T22:06:48.904Z,2.30
2023-03-04T22:09:15.765Z,2.10
2023-03-04T22:11:42.287Z,1.80
2023-03-04T22:14:10.503Z,2.43
2023-03-04T22:16:48.936Z,1.90
2023-03-04T22:19:20.927Z,2.00
2023-03-04T22:21:47.395Z,1.80
2023-03-04T22:24:13.811Z,2.10
2023-03-04T22:26:40.218Z,2.30
2023-03-04T22:29:06.628Z,2.03
2023-03-04T22:31:35.744Z,1.87
2023-03-04T22:34:05.220Z,2.33
2023-03-04T22:36:33.536Z,2.00
2023-03-04T22:39:01.759Z,1.80
2023-03-04T22:41:28.249Z,2.07
2023-03-04T22:43:55.020Z,1.90
2023-03-04T22:46:27.297Z,1.83
2023-03-04T22:48:56.346Z,2.20
2023-03-04T22:51:23.497Z,1.80
2023-03-04T22:53:51.753Z,1.80
2023-03-04T22:56:19.247Z,2.13
2023-03-04T22:58:47.033Z,2.33
2023-03-04T23:01:15.299Z,2.30
2023-03-04T23:03:42.557Z,1.73
2023-03-04T23:06:30.828Z,2.07
2023-03-04T23:08:58.125Z,1.73
2023-03-04T23:11:27.976Z,1.73
2023-03-04T23:13:54.742Z,2.50
2023-03-04T23:16:24.372Z,2.03
2023-03-04T23:18:51.909Z,2.00
2023-03-04T23:21:23.988Z,2.00
2023-03-04T23:23:51.974Z,2.20
2023-03-04T23:26:21.315Z,1.57
2023-03-04T23:28:48.310Z,1.83
2023-03-04T23:31:15.113Z,2.33
2023-03-04T23:33:44.650Z,2.03
2023-03-04T23:36:15.254Z,2.40
2023-03-04T23:38:43.762Z,2.10
2023-03-04T23:41:15.192Z,2.23
2023-03-04T23:43:41.916Z,2.57
2023-03-04T23:46:12.367Z,2.43
2023-03-04T23:48:43.742Z,1.90
2023-03-04T23:51:10.916Z,2.67
2023-03-04T23:53:39.185Z,2.27
2023-03-04T23:56:10.339Z,2.40
2023-03-04T23:58:36.889Z,2.20
